Time;durP1;ratioP1;P1;durP2;ratioP2;P2;SDS_P1;SDS_P2;PMS_P1;PMS_P2;Temp;Humidity;BMP_temperature;BMP_pressure;BME280_temperature;BME280_humidity;BME280_pressure;Samples;Min_cycle;Max_cycle;Signal;HPM_P1;HPM_P2
2023/05/07 00:01:57;;;;;;;5.25;2.00;;;;;;;;;;4940905;29;20034;-75
2023/05/07 00:04:23;;;;;;;2.65;2.45;;;;;;;;;;4940206;29;20087;-75
2023/05/07 00:06:49;;;;;;;1.80;1.70;;;;;;;;;;4938550;29;20722;-75
2023/05/07 00:09:16;;;;;;;2.00;1.75;;;;;;;;;;4940566;29;20687;-74
2023/05/07 00:11:42;;;;;;;2.30;2.00;;;;;;;;;;4939650;29;20052;-75
2023/05/07 00:14:08;;;;;;;3.63;2.00;;;;;;;;;;4940131;29;20475;-75
2023/05/07 00:16:34;;;;;;;3.00;2.22;;;;;;;;;;4941830;29;20070;-75
2023/05/07 00:19:00;;;;;;;2.35;2.20;;;;;;;;;;4939453;29;20351;-74
2023/05/07 00:21:26;;;;;;;2.42;2.10;;;;;;;;;;4940772;29;20118;-75
2023/05/07 00:23:53;;;;;;;2.60;1.70;;;;;;;;;;4939477;29;20032;-74
2023/05/07 00:26:19;;;;;;;1.85;1.75;;;;;;;;;;4939276;29;20043;-75
2023/05/07 00:28:45;;;;;;;2.13;1.92;;;;;;;;;;4941678;29;20034;-75
2023/05/07 00:31:11;;;;;;;1.70;1.55;;;;;;;;;;4939495;29;20091;-75
2023/05/07 00:33:37;;;;;;;4.38;2.20;;;;;;;;;;4939333;29;20034;-75
2023/05/07 00:36:03;;;;;;;2.40;2.20;;;;;;;;;;4940526;29;20098;-75
2023/05/07 00:38:29;;;;;;;3.17;2.80;;;;;;;;;;4939724;29;20408;-75
2023/05/07 00:40:55;;;;;;;8.32;2.08;;;;;;;;;;4939143;29;20035;-75
2023/05/07 00:43:21;;;;;;;3.63;1.63;;;;;;;;;;4940855;29;20059;-75
2023/05/07 00:45:47;;;;;;;2.80;2.35;;;;;;;;;;4939665;29;20043;-75
2023/05/07 00:48:13;;;;;;;3.22;2.33;;;;;;;;;;4940907;29;20312;-76
2023/05/07 00:50:40;;;;;;;3.47;2.80;;;;;;;;;;4939566;29;20370;-75
2023/05/07 00:53:07;;;;;;;4.07;2.58;;;;;;;;;;4940125;29;20704;-74
2023/05/07 00:55:33;;;;;;;6.35;2.88;;;;;;;;;;4939448;29;20421;-76
2023/05/07 00:57:59;;;;;;;4.32;2.47;;;;;;;;;;4939805;29;20036;-76
2023/05/07 01:00:25;;;;;;;6.40;2.85;;;;;;;;;;4939165;29;20488;-76
2023/05/07 01:02:51;;;;;;;4.47;2.80;;;;;;;;;;4939986;29;20031;-76
2023/05/07 01:05:19;;;;;;;3.10;2.20;;;;;;;;;;4935576;29;20380;-76
2023/05/07 01:07:45;;;;;;;2.90;2.58;;;;;;;;;;4932518;29;20481;-75
2023/05/07 01:10:12;;;;;;;2.70;2.38;;;;;;;;;;4931378;29;20047;-76
2023/05/07 01:12:39;;;;;;;5.40;2.08;;;;;;;;;;4933073;29;20019;-75
2023/05/07 01:15:05;;;;;;;2.67;2.00;;;;;;;;;;4932290;29;20028;-76
2023/05/07 01:17:42;;;;;;;2.65;2.30;;;;;;;;;;4930806;29;20051;-76
2023/05/07 01:20:10;;;;;;;3.20;2.20;;;;;;;;;;4932444;29;20395;-75
2023/05/07 01:22:36;;;;;;;3.22;2.47;;;;;;;;;;4933440;29;20042;-75
2023/05/07 01:25:03;;;;;;;2.95;1.88;;;;;;;;;;4935797;29;20031;-75
2023/05/07 01:27:29;;;;;;;3.03;2.72;;;;;;;;;;4939493;29;20050;-75
2023/05/07 01:29:55;;;;;;;2.47;2.28;;;;;;;;;;4943955;29;20380;-75
2023/05/07 01:32:24;;;;;;;5.18;2.40;;;;;;;;;;4943656;29;20030;-75
2023/05/07 01:34:50;;;;;;;3.23;2.40;;;;;;;;;;4945168;29;20035;-75
2023/05/07 01:37:17;;;;;;;2.70;2.10;;;;;;;;;;4945542;29;20106;-75
2023/05/07 01:39:43;;;;;;;7.63;2.65;;;;;;;;;;4944401;29;20077;-75
2023/05/07 01:42:09;;;;;;;7.45;3.25;;;;;;;;;;4943367;29;20019;-75
2023/05/07 01:44:35;;;;;;;4.07;2.65;;;;;;;;;;4942551;29;20027;-75
2023/05/07 01:47:02;;;;;;;3.13;2.72;;;;;;;;;;4940210;29;20494;-75
2023/05/07 01:49:28;;;;;;;3.40;2.95;;;;;;;;;;4935978;29;20035;-75
2023/05/07 01:51:55;;;;;;;5.97;3.08;;;;;;;;;;4934637;29;20067;-74
2023/05/07 01:54:27;;;;;;;6.85;3.17;;;;;;;;;;4934823;29;20031;-74
2023/05/07 01:57:02;;;;;;;2.65;2.45;;;;;;;;;;4934113;29;20063;-75
2023/05/07 01:59:28;;;;;;;9.23;2.63;;;;;;;;;;4941019;29;20090;-75
2023/05/07 02:01:54;;;;;;;5.57;2.95;;;;;;;;;;4938631;29;20031;-75
2023/05/07 02:04:20;;;;;;;6.55;2.97;;;;;;;;;;4934508;29;20035;-74
2023/05/07 02:06:46;;;;;;;8.23;4.47;;;;;;;;;;4936561;29;20035;-75
2023/05/07 02:09:12;;;;;;;3.85;3.17;;;;;;;;;;4937390;29;20027;-75
2023/05/07 02:11:38;;;;;;;5.35;3.35;;;;;;;;;;4938149;29;20026;-75
2023/05/07 02:14:05;;;;;;;4.55;3.28;;;;;;;;;;4937636;29;20027;-75
2023/05/07 02:16:31;;;;;;;5.22;3.15;;;;;;;;;;4934561;29;20054;-75
2023/05/07 02:18:58;;;;;;;3.22;2.92;;;;;;;;;;4933730;29;20036;-75
2023/05/07 02:21:24;;;;;;;7.90;3.20;;;;;;;;;;4935928;29;20036;-75
2023/05/07 02:23:50;;;;;;;3.80;2.67;;;;;;;;;;4935394;29;20456;-75
2023/05/07 02:26:16;;;;;;;11.30;3.55;;;;;;;;;;4934435;29;20091;-75
2023/05/07 02:28:42;;;;;;;4.57;3.17;;;;;;;;;;4930969;29;20031;-74
2023/05/07 02:31:08;;;;;;;5.22;2.97;;;;;;;;;;4915485;29;20465;-75
2023/05/07 02:33:37;;;;;;;4.07;3.42;;;;;;;;;;4925028;29;20070;-75
2023/05/07 02:36:07;;;;;;;4.57;3.42;;;;;;;;;;4935008;29;20122;-75
2023/05/07 02:38:33;;;;;;;6.00;4.32;;;;;;;;;;4934192;29;20130;-75
2023/05/07 02:40:59;;;;;;;4.57;4.07;;;;;;;;;;4935701;29;20512;-75
2023/05/07 02:43:25;;;;;;;4.75;3.38;;;;;;;;;;4933277;29;20523;-75
2023/05/07 02:46:01;;;;;;;5.90;3.70;;;;;;;;;;4935150;29;20019;-74
2023/05/07 02:48:27;;;;;;;8.10;3.88;;;;;;;;;;4935270;29;20031;-75
2023/05/07 02:50:53;;;;;;;6.30;3.88;;;;;;;;;;4932782;29;20469;-75
2023/05/07 02:53:19;;;;;;;6.60;4.18;;;;;;;;;;4935049;29;20159;-75
2023/05/07 02:55:45;;;;;;;4.07;3.70;;;;;;;;;;4937101;29;20020;-75
2023/05/07 02:58:11;;;;;;;6.20;2.78;;;;;;;;;;4938692;29;20027;-75
2023/05/07 03:00:37;;;;;;;3.80;2.88;;;;;;;;;;4937085;29;20377;-75
2023/05/07 03:03:03;;;;;;;4.20;3.80;;;;;;;;;;4938343;29;20346;-75
2023/05/07 03:05:29;;;;;;;7.75;4.30;;;;;;;;;;4936961;29;20491;-75
2023/05/07 03:07:55;;;;;;;6.15;4.53;;;;;;;;;;4934594;29;20027;-75
2023/05/07 03:10:21;;;;;;;4.65;3.30;;;;;;;;;;4932957;29;20023;-75
2023/05/07 03:12:47;;;;;;;4.30;3.42;;;;;;;;;;4934463;29;20079;-75
2023/05/07 03:15:13;;;;;;;9.48;5.25;;;;;;;;;;4938007;29;20027;-75
2023/05/07 03:17:39;;;;;;;7.20;4.72;;;;;;;;;;4931506;29;20477;-75
2023/05/07 03:20:05;;;;;;;6.93;4.20;;;;;;;;;;4922603;29;20036;-75
2023/05/07 03:22:31;;;;;;;5.13;3.53;;;;;;;;;;4921877;29;20171;-75
2023/05/07 03:24:58;;;;;;;22.33;3.97;;;;;;;;;;4920872;29;20031;-75
2023/05/07 03:27:24;;;;;;;3.13;2.83;;;;;;;;;;4920943;29;20044;-75
2023/05/07 03:29:50;;;;;;;7.47;3.03;;;;;;;;;;4921786;29;20434;-75
2023/05/07 03:32:16;;;;;;;4.88;4.28;;;;;;;;;;4923999;29;20099;-75
2023/05/07 03:34:42;;;;;;;9.50;4.40;;;;;;;;;;4923513;29;20032;-75
2023/05/07 03:37:08;;;;;;;10.77;4.70;;;;;;;;;;4925047;29;20080;-75
2023/05/07 03:39:34;;;;;;;5.03;3.70;;;;;;;;;;4923267;29;20047;-75
2023/05/07 03:42:00;;;;;;;6.10;4.35;;;;;;;;;;4924492;29;20465;-75
2023/05/07 03:44:26;;;;;;;5.47;3.13;;;;;;;;;;4922538;29;20032;-75
2023/05/07 03:46:53;;;;;;;5.72;3.50;;;;;;;;;;4930978;29;20112;-75
2023/05/07 03:49:19;;;;;;;4.72;3.75;;;;;;;;;;4940804;29;20087;-75
2023/05/07 03:51:45;;;;;;;9.30;4.05;;;;;;;;;;4939950;29;20030;-75
2023/05/07 03:54:11;;;;;;;17.15;4.03;;;;;;;;;;4937733;29;20068;-75
2023/05/07 03:56:37;;;;;;;6.03;4.15;;;;;;;;;;4942679;29;20086;-75
2023/05/07 03:59:03;;;;;;;6.15;3.92;;;;;;;;;;4947704;29;20359;-75
2023/05/07 04:01:29;;;;;;;5.85;4.75;;;;;;;;;;4948266;29;20027;-75
2023/05/07 04:03:55;;;;;;;4.90;3.80;;;;;;;;;;4947180;29;20020;-75
2023/05/07 04:06:21;;;;;;;7.50;5.07;;;;;;;;;;4946286;29;20031;-75
2023/05/07 04:08:47;;;;;;;6.88;4.32;;;;;;;;;;4943525;29;20039;-75
2023/05/07 04:11:13;;;;;;;7.25;5.18;;;;;;;;;;4944297;29;20105;-75
2023/05/07 04:13:39;;;;;;;6.38;4.00;;;;;;;;;;4943703;29;20038;-75
2023/05/07 04:16:05;;;;;;;6.65;4.18;;;;;;;;;;4940962;29;20020;-75
2023/05/07 04:18:31;;;;;;;6.43;4.85;;;;;;;;;;4939348;29;20381;-75
2023/05/07 04:20:58;;;;;;;6.65;4.13;;;;;;;;;;4939321;29;20564;-75
2023/05/07 04:23:24;;;;;;;6.53;4.57;;;;;;;;;;4940174;29;20079;-75
2023/05/07 04:25:50;;;;;;;5.28;4.38;;;;;;;;;;4940828;29;20042;-75
2023/05/07 04:28:16;;;;;;;7.18;4.07;;;;;;;;;;4943355;29;20024;-75
2023/05/07 04:30:42;;;;;;;6.65;4.47;;;;;;;;;;4935991;29;20326;-75
2023/05/07 04:33:08;;;;;;;5.65;4.95;;;;;;;;;;4940453;29;20028;-75
2023/05/07 04:35:35;;;;;;;12.68;5.60;;;;;;;;;;4942592;29;20032;-75
2023/05/07 04:38:01;;;;;;;5.25;4.65;;;;;;;;;;4942224;29;20031;-75
2023/05/07 04:40:27;;;;;;;5.95;4.25;;;;;;;;;;4937580;29;20075;-75
2023/05/07 04:42:53;;;;;;;7.75;5.07;;;;;;;;;;4936116;29;20062;-75
2023/05/07 04:45:19;;;;;;;4.75;3.50;;;;;;;;;;4938803;29;20106;-75
2023/05/07 04:47:45;;;;;;;5.68;3.40;;;;;;;;;;4936025;29;20415;-75
2023/05/07 04:50:11;;;;;;;6.20;4.18;;;;;;;;;;4938280;29;20198;-75
2023/05/07 04:52:37;;;;;;;5.35;3.80;;;;;;;;;;4935758;29;20034;-75
2023/05/07 04:55:04;;;;;;;6.28;4.85;;;;;;;;;;4950712;23;20102;-75
2023/05/07 04:57:30;;;;;;;5.72;3.85;;;;;;;;;;4951510;29;20031;-76
2023/05/07 04:59:56;;;;;;;6.63;4.07;;;;;;;;;;4952896;28;20054;-74
2023/05/07 05:02:22;;;;;;;8.18;4.90;;;;;;;;;;4952309;29;20527;-75
2023/05/07 05:04:48;;;;;;;9.07;4.32;;;;;;;;;;4954309;28;20027;-76
2023/05/07 05:07:14;;;;;;;3.88;3.47;;;;;;;;;;4954148;28;20468;-75
2023/05/07 05:09:40;;;;;;;7.93;3.67;;;;;;;;;;4953459;28;20031;-76
2023/05/07 05:12:07;;;;;;;6.93;3.30;;;;;;;;;;4951646;29;20749;-76
2023/05/07 05:14:33;;;;;;;5.00;3.47;;;;;;;;;;4951559;29;20051;-76
2023/05/07 05:16:59;;;;;;;5.22;3.67;;;;;;;;;;4953209;28;20436;-76
2023/05/07 05:19:25;;;;;;;7.70;3.03;;;;;;;;;;4951558;29;20101;-76
2023/05/07 05:21:51;;;;;;;8.07;4.22;;;;;;;;;;4952007;29;20062;-75
2023/05/07 05:24:17;;;;;;;5.60;3.80;;;;;;;;;;4958359;28;20323;-75
2023/05/07 05:26:43;;;;;;;5.22;3.38;;;;;;;;;;4952836;29;20114;-74
2023/05/07 05:29:10;;;;;;;4.45;3.25;;;;;;;;;;4952936;28;20106;-74
2023/05/07 05:31:36;;;;;;;4.00;3.10;;;;;;;;;;4956944;28;20079;-74
2023/05/07 05:34:03;;;;;;;3.83;2.75;;;;;;;;;;4960995;28;20304;-75
2023/05/07 05:36:30;;;;;;;4.13;2.80;;;;;;;;;;4961953;28;20027;-74
2023/05/07 05:38:56;;;;;;;4.93;3.17;;;;;;;;;;4960068;29;20062;-75
2023/05/07 05:41:22;;;;;;;3.78;3.25;;;;;;;;;;4961953;28;20387;-75
2023/05/07 05:43:49;;;;;;;2.55;2.35;;;;;;;;;;4961290;28;20031;-75
2023/05/07 05:46:15;;;;;;;2.58;2.38;;;;;;;;;;4950947;29;20026;-75
2023/05/07 05:48:41;;;;;;;3.72;2.60;;;;;;;;;;4951853;29;20027;-75
2023/05/07 05:51:07;;;;;;;3.05;2.42;;;;;;;;;;4959439;28;20050;-75
2023/05/07 05:53:33;;;;;;;4.03;2.72;;;;;;;;;;4948894;28;20036;-74
2023/05/07 05:55:59;;;;;;;2.92;2.53;;;;;;;;;;4939101;29;20048;-74
2023/05/07 05:58:25;;;;;;;2.72;2.17;;;;;;;;;;4941980;29;20038;-75
2023/05/07 06:00:53;;;;;;;5.07;2.47;;;;;;;;;;4940832;29;20087;-74
2023/05/07 06:03:19;;;;;;;3.30;3.03;;;;;;;;;;4941362;29;20419;-74
2023/05/07 06:05:45;;;;;;;2.88;2.25;;;;;;;;;;4941793;29;20060;-75
2023/05/07 06:08:11;;;;;;;3.40;2.35;;;;;;;;;;4942842;29;20028;-75
2023/05/07 06:10:38;;;;;;;6.75;2.25;;;;;;;;;;4940445;29;20355;-76
2023/05/07 06:13:04;;;;;;;2.47;2.28;;;;;;;;;;4941445;29;20342;-74
2023/05/07 06:15:30;;;;;;;5.07;2.55;;;;;;;;;;4943025;29;20079;-76
2023/05/07 06:17:57;;;;;;;3.65;2.65;;;;;;;;;;4943487;29;20091;-77
2023/05/07 06:20:23;;;;;;;2.20;2.00;;;;;;;;;;4943008;29;20087;-75
2023/05/07 06:22:49;;;;;;;3.05;2.45;;;;;;;;;;4937253;29;20126;-76
2023/05/07 06:25:15;;;;;;;3.70;2.63;;;;;;;;;;4940205;29;20047;-74
2023/05/07 06:27:41;;;;;;;2.67;2.45;;;;;;;;;;4940219;29;20039;-75
2023/05/07 06:30:08;;;;;;;2.20;2.00;;;;;;;;;;4937762;29;20024;-74
2023/05/07 06:32:34;;;;;;;3.47;2.10;;;;;;;;;;4941114;29;20056;-74
2023/05/07 06:34:59;;;;;;;3.97;2.20;;;;;;;;;;4941407;29;20031;-75
2023/05/07 06:37:26;;;;;;;4.43;1.75;;;;;;;;;;4936719;29;20046;-74
2023/05/07 06:39:52;;;;;;;5.03;2.22;;;;;;;;;;4939664;29;20047;-76
2023/05/07 06:42:17;;;;;;;2.30;2.08;;;;;;;;;;4937896;29;20476;-74
2023/05/07 06:44:44;;;;;;;4.43;2.05;;;;;;;;;;4940687;29;20028;-74
2023/05/07 06:47:10;;;;;;;9.38;2.05;;;;;;;;;;4941677;29;20299;-74
2023/05/07 06:49:36;;;;;;;1.45;1.35;;;;;;;;;;4939690;29;20027;-74
2023/05/07 06:52:02;;;;;;;4.13;2.47;;;;;;;;;;4942358;29;20032;-77
2023/05/07 06:54:28;;;;;;;5.30;2.05;;;;;;;;;;4941849;29;20031;-75
2023/05/07 06:56:54;;;;;;;2.90;1.73;;;;;;;;;;4951056;28;20043;-75
2023/05/07 06:59:20;;;;;;;2.47;2.00;;;;;;;;;;4960541;28;20047;-74
2023/05/07 07:01:46;;;;;;;1.60;1.50;;;;;;;;;;4949335;28;20472;-74
2023/05/07 07:04:12;;;;;;;1.80;1.70;;;;;;;;;;4951475;28;20030;-75
2023/05/07 07:06:38;;;;;;;2.35;1.77;;;;;;;;;;4954238;28;20110;-75
2023/05/07 07:09:04;;;;;;;3.47;1.98;;;;;;;;;;4958949;28;20024;-75
2023/05/07 07:11:30;;;;;;;7.10;2.33;;;;;;;;;;4950345;28;20102;-75
2023/05/07 07:13:56;;;;;;;2.63;2.33;;;;;;;;;;4951738;28;20535;-75
2023/05/07 07:16:22;;;;;;;2.22;2.00;;;;;;;;;;4959245;28;20019;-74
2023/05/07 07:18:48;;;;;;;8.73;2.13;;;;;;;;;;4956679;28;20480;-75
2023/05/07 07:21:14;;;;;;;1.55;1.45;;;;;;;;;;4954886;28;20035;-75
2023/05/07 07:23:40;;;;;;;7.10;2.33;;;;;;;;;;4945590;28;20035;-74
2023/05/07 07:26:06;;;;;;;1.92;1.80;;;;;;;;;;4949065;28;20028;-74
2023/05/07 07:28:32;;;;;;;3.53;1.58;;;;;;;;;;4947079;28;20402;-74
2023/05/07 07:30:58;;;;;;;5.15;2.17;;;;;;;;;;4946313;28;20162;-74
2023/05/07 07:33:24;;;;;;;1.75;1.65;;;;;;;;;;4947108;28;20500;-75
2023/05/07 07:35:50;;;;;;;5.07;2.20;;;;;;;;;;4947771;28;20033;-75
2023/05/07 07:38:16;;;;;;;1.50;1.40;;;;;;;;;;4946911;28;20046;-74
2023/05/07 07:40:43;;;;;;;2.90;2.17;;;;;;;;;;4947619;28;20035;-74
2023/05/07 07:43:09;;;;;;;2.20;2.00;;;;;;;;;;4947499;28;20110;-75
2023/05/07 07:45:35;;;;;;;3.80;1.83;;;;;;;;;;4947903;28;20462;-75
2023/05/07 07:48:01;;;;;;;6.38;2.40;;;;;;;;;;4946138;28;20136;-74
2023/05/07 07:50:27;;;;;;;2.88;1.92;;;;;;;;;;4947719;28;20016;-74
2023/05/07 07:52:53;;;;;;;2.88;2.20;;;;;;;;;;4949206;28;20384;-75
2023/05/07 07:55:22;;;;;;;2.40;2.20;;;;;;;;;;4946407;28;20486;-75
2023/05/07 07:57:48;;;;;;;3.83;1.60;;;;;;;;;;4949798;28;20032;-75
2023/05/07 08:00:15;;;;;;;3.75;1.80;;;;;;;;;;4950838;28;20515;-74
2023/05/07 08:02:41;;;;;;;5.78;2.47;;;;;;;;;;4953867;28;20027;-74
2023/05/07 08:05:07;;;;;;;3.40;2.08;;;;;;;;;;4953455;28;20392;-74
2023/05/07 08:07:33;;;;;;;4.72;1.80;;;;;;;;;;4952663;28;20074;-75
2023/05/07 08:09:59;;;;;;;3.30;2.30;;;;;;;;;;4953601;28;20030;-74
2023/05/07 08:12:25;;;;;;;3.08;1.83;;;;;;;;;;4954040;28;20032;-75
2023/05/07 08:14:51;;;;;;;2.97;1.85;;;;;;;;;;4953688;28;20046;-75
2023/05/07 08:17:17;;;;;;;3.30;1.98;;;;;;;;;;4952362;28;20480;-74
2023/05/07 08:19:43;;;;;;;2.92;2.13;;;;;;;;;;4952317;28;20035;-74
2023/05/07 08:22:10;;;;;;;13.35;3.20;;;;;;;;;;4953707;28;20408;-74
2023/05/07 08:24:36;;;;;;;4.57;2.40;;;;;;;;;;4953479;28;20023;-75
2023/05/07 08:27:03;;;;;;;8.23;2.25;;;;;;;;;;4953562;28;20535;-75
2023/05/07 08:29:29;;;;;;;2.13;1.95;;;;;;;;;;4954115;28;20074;-74
2023/05/07 08:31:55;;;;;;;5.43;1.92;;;;;;;;;;4953841;28;20413;-74
2023/05/07 08:34:22;;;;;;;3.20;2.30;;;;;;;;;;4953361;28;20027;-75
2023/05/07 08:36:48;;;;;;;3.15;1.92;;;;;;;;;;4951907;28;20051;-75
2023/05/07 08:39:14;;;;;;;1.92;1.83;;;;;;;;;;4953061;28;20504;-74
2023/05/07 08:41:40;;;;;;;3.45;1.88;;;;;;;;;;4953621;28;20491;-74
2023/05/07 08:44:07;;;;;;;8.95;2.20;;;;;;;;;;4953900;28;20535;-74
2023/05/07 08:46:33;;;;;;;3.92;1.60;;;;;;;;;;4953949;28;20051;-74
2023/05/07 08:48:59;;;;;;;1.30;1.20;;;;;;;;;;4953748;28;20506;-74
2023/05/07 08:51:25;;;;;;;1.42;1.30;;;;;;;;;;4952767;28;20391;-74
2023/05/07 08:53:51;;;;;;;1.90;1.10;;;;;;;;;;4953514;28;20028;-75
2023/05/07 08:56:18;;;;;;;2.88;1.42;;;;;;;;;;4952307;28;20051;-75
2023/05/07 08:58:44;;;;;;;1.58;1.13;;;;;;;;;;4953589;28;20043;-74
2023/05/07 09:01:13;;;;;;;1.08;1.08;;;;;;;;;;4954238;28;20054;-74
2023/05/07 09:03:39;;;;;;;3.53;1.40;;;;;;;;;;4952372;28;20059;-74
2023/05/07 09:06:05;;;;;;;1.52;0.85;;;;;;;;;;4952174;28;20034;-74
2023/05/07 09:08:33;;;;;;;1.10;0.98;;;;;;;;;;4953053;28;20480;-74
2023/05/07 09:10:59;;;;;;;3.97;0.90;;;;;;;;;;4952888;28;20047;-74
2023/05/07 09:13:25;;;;;;;2.85;1.23;;;;;;;;;;4952987;28;20512;-75
2023/05/07 09:15:51;;;;;;;2.38;1.13;;;;;;;;;;4952093;29;20423;-74
2023/05/07 09:18:17;;;;;;;1.25;1.15;;;;;;;;;;4953401;28;20035;-74
2023/05/07 09:20:43;;;;;;;1.45;1.35;;;;;;;;;;4952342;28;20042;-74
2023/05/07 09:23:09;;;;;;;1.30;1.20;;;;;;;;;;4953074;28;20053;-74
2023/05/07 09:25:36;;;;;;;0.70;0.70;;;;;;;;;;4953243;28;20027;-74
2023/05/07 09:28:03;;;;;;;0.98;0.80;;;;;;;;;;4953040;28;20064;-74
2023/05/07 09:30:30;;;;;;;2.17;1.27;;;;;;;;;;4951612;28;20201;-74
2023/05/07 09:32:56;;;;;;;1.00;1.00;;;;;;;;;;4953026;28;20027;-74
2023/05/07 09:35:24;;;;;;;4.97;1.48;;;;;;;;;;4953309;28;20074;-74
2023/05/07 09:37:50;;;;;;;1.95;1.05;;;;;;;;;;4952894;28;20039;-74
2023/05/07 09:40:29;;;;;;;1.17;1.08;;;;;;;;;;4951324;28;20075;-74
2023/05/07 09:42:55;;;;;;;2.10;1.15;;;;;;;;;;4953310;28;20412;-75
2023/05/07 09:45:30;;;;;;;1.15;0.85;;;;;;;;;;4952843;28;20038;-75
2023/05/07 09:47:57;;;;;;;2.13;1.00;;;;;;;;;;4952974;28;20019;-75
2023/05/07 09:50:28;;;;;;;2.13;1.65;;;;;;;;;;4953018;28;20110;-75
2023/05/07 09:52:55;;;;;;;1.50;1.40;;;;;;;;;;4953104;28;20372;-75
2023/05/07 09:55:21;;;;;;;1.02;0.77;;;;;;;;;;4952299;28;20027;-74
2023/05/07 09:57:48;;;;;;;1.52;1.40;;;;;;;;;;4952687;28;20081;-74
2023/05/07 10:00:15;;;;;;;2.70;1.25;;;;;;;;;;4952528;28;20081;-74
2023/05/07 10:02:46;;;;;;;1.02;0.93;;;;;;;;;;4951206;28;20321;-74
2023/05/07 10:05:13;;;;;;;2.63;2.35;;;;;;;;;;4951193;28;20078;-75
2023/05/07 10:07:39;;;;;;;1.98;1.75;;;;;;;;;;4951203;28;20031;-75
2023/05/07 10:10:05;;;;;;;2.55;2.08;;;;;;;;;;4952532;28;20121;-74
2023/05/07 10:12:37;;;;;;;10.82;6.93;;;;;;;;;;4952563;28;20035;-74
2023/05/07 10:15:04;;;;;;;2.63;2.08;;;;;;;;;;4952482;28;20019;-74
2023/05/07 10:17:30;;;;;;;6.80;1.10;;;;;;;;;;4951054;28;20126;-75
2023/05/07 10:19:56;;;;;;;4.40;2.03;;;;;;;;;;4952329;28;20039;-75
2023/05/07 10:22:22;;;;;;;2.22;1.38;;;;;;;;;;4951866;28;20412;-74
2023/05/07 10:24:49;;;;;;;2.42;1.20;;;;;;;;;;4950460;28;20043;-75
2023/05/07 10:27:16;;;;;;;2.10;1.67;;;;;;;;;;4952156;28;20042;-75
2023/05/07 10:29:45;;;;;;;4.88;1.48;;;;;;;;;;4952376;28;20023;-74
2023/05/07 10:32:30;;;;;;;2.20;1.42;;;;;;;;;;4952315;28;20035;-75
2023/05/07 10:34:59;;;;;;;2.38;1.40;;;;;;;;;;4951996;28;20027;-74
2023/05/07 10:37:25;;;;;;;3.08;1.25;;;;;;;;;;4952141;28;20463;-74
2023/05/07 10:39:52;;;;;;;3.65;3.08;;;;;;;;;;4950111;28;20047;-74
2023/05/07 10:42:18;;;;;;;2.92;1.73;;;;;;;;;;4951752;28;20087;-75
2023/05/07 10:44:44;;;;;;;2.10;1.30;;;;;;;;;;4951843;28;20110;-75
2023/05/07 10:47:18;;;;;;;1.30;1.20;;;;;;;;;;4952325;28;20030;-74
2023/05/07 10:49:44;;;;;;;3.35;1.75;;;;;;;;;;4951867;28;20099;-74
2023/05/07 10:52:17;;;;;;;4.68;1.55;;;;;;;;;;4950480;28;20031;-75
2023/05/07 10:54:44;;;;;;;1.42;1.33;;;;;;;;;;4950463;28;20023;-75
2023/05/07 10:57:30;;;;;;;2.65;2.05;;;;;;;;;;4950287;28;20075;-74
2023/05/07 10:59:56;;;;;;;1.77;1.45;;;;;;;;;;4959361;28;20134;-75
2023/05/07 11:02:22;;;;;;;2.15;1.33;;;;;;;;;;4951605;28;20209;-74
2023/05/07 11:05:07;;;;;;;1.48;1.38;;;;;;;;;;4951867;28;20023;-74
2023/05/07 11:07:33;;;;;;;1.60;1.50;;;;;;;;;;4950443;28;20034;-74
2023/05/07 11:10:01;;;;;;;3.10;1.90;;;;;;;;;;4949960;28;20114;-74
2023/05/07 11:12:36;;;;;;;2.78;1.48;;;;;;;;;;4951514;28;20576;-74
2023/05/07 11:15:08;;;;;;;6.82;1.80;;;;;;;;;;4951506;28;20027;-74
2023/05/07 11:17:35;;;;;;;2.15;1.55;;;;;;;;;;4951631;28;20074;-74
2023/05/07 11:20:02;;;;;;;3.20;1.95;;;;;;;;;;4950212;28;20652;-74
2023/05/07 11:22:35;;;;;;;3.00;1.70;;;;;;;;;;4951435;28;20488;-74
2023/05/07 11:25:01;;;;;;;1.58;1.48;;;;;;;;;;4950194;28;20042;-74
2023/05/07 11:27:28;;;;;;;2.60;1.60;;;;;;;;;;4951677;28;20020;-74
2023/05/07 11:29:54;;;;;;;2.60;1.52;;;;;;;;;;4951644;28;20492;-74
2023/05/07 11:32:27;;;;;;;2.58;1.30;;;;;;;;;;4951310;28;20027;-75
2023/05/07 11:34:53;;;;;;;2.47;1.60;;;;;;;;;;4950726;28;20027;-74
2023/05/07 11:37:20;;;;;;;4.13;1.42;;;;;;;;;;4955031;28;20038;-74
2023/05/07 11:39:46;;;;;;;1.15;1.10;;;;;;;;;;4955092;28;20500;-74
2023/05/07 11:42:28;;;;;;;2.13;1.52;;;;;;;;;;4953828;28;20023;-74
2023/05/07 11:44:54;;;;;;;2.67;1.23;;;;;;;;;;4955373;28;20061;-74
2023/05/07 11:47:20;;;;;;;0.90;0.90;;;;;;;;;;4955375;28;20085;-74
2023/05/07 11:49:50;;;;;;;1.55;1.20;;;;;;;;;;4955461;28;20074;-74
2023/05/07 11:52:17;;;;;;;1.60;0.77;;;;;;;;;;4955102;28;20027;-74
2023/05/07 11:54:49;;;;;;;2.65;1.27;;;;;;;;;;4954506;28;20099;-75
2023/05/07 11:57:15;;;;;;;2.50;1.10;;;;;;;;;;4954623;28;20124;-75
2023/05/07 11:59:44;;;;;;;2.17;1.30;;;;;;;;;;4954697;28;20077;-75
2023/05/07 12:02:10;;;;;;;1.30;1.20;;;;;;;;;;4953582;28;20020;-74
2023/05/07 12:04:36;;;;;;;1.23;1.13;;;;;;;;;;4953473;28;20034;-74
2023/05/07 12:07:02;;;;;;;2.20;0.55;;;;;;;;;;4954780;28;20031;-74
2023/05/07 12:09:28;;;;;;;3.35;1.70;;;;;;;;;;4952945;28;20034;-74
2023/05/07 12:11:55;;;;;;;1.45;1.30;;;;;;;;;;4954559;28;20028;-74
2023/05/07 12:14:21;;;;;;;1.73;1.52;;;;;;;;;;4953163;28;20484;-75
2023/05/07 12:16:48;;;;;;;2.53;1.20;;;;;;;;;;4954463;28;20038;-75
2023/05/07 12:19:14;;;;;;;2.33;1.52;;;;;;;;;;4954700;28;20114;-76
2023/05/07 12:21:40;;;;;;;3.15;1.58;;;;;;;;;;4954549;28;20173;-76
2023/05/07 12:24:06;;;;;;;1.88;1.08;;;;;;;;;;4952945;28;20090;-76
2023/05/07 12:26:32;;;;;;;1.77;1.48;;;;;;;;;;4953727;28;20144;-76
2023/05/07 12:28:58;;;;;;;1.73;1.33;;;;;;;;;;4953482;28;20032;-76
2023/05/07 12:31:27;;;;;;;1.95;0.93;;;;;;;;;;4953369;28;20467;-76
2023/05/07 12:33:54;;;;;;;1.60;1.50;;;;;;;;;;4954341;28;20038;-76
2023/05/07 12:36:21;;;;;;;1.00;1.00;;;;;;;;;;4954027;28;20031;-76
2023/05/07 12:38:49;;;;;;;2.38;1.63;;;;;;;;;;4951821;28;20094;-76
2023/05/07 12:41:16;;;;;;;3.40;1.50;;;;;;;;;;4952109;28;20023;-76
2023/05/07 12:43:45;;;;;;;1.30;1.05;;;;;;;;;;4953201;28;20035;-76
2023/05/07 12:46:13;;;;;;;1.75;0.90;;;;;;;;;;4953025;28;20505;-76
2023/05/07 12:48:43;;;;;;;0.98;0.90;;;;;;;;;;4953204;28;20023;-76
2023/05/07 12:51:12;;;;;;;0.85;0.73;;;;;;;;;;4951840;28;20027;-76
2023/05/07 12:53:42;;;;;;;1.45;0.80;;;;;;;;;;4953180;28;20073;-76
2023/05/07 12:56:08;;;;;;;5.68;2.90;;;;;;;;;;4951864;28;20080;-76
2023/05/07 12:58:35;;;;;;;1.63;1.52;;;;;;;;;;4953044;28;20046;-76
2023/05/07 13:01:02;;;;;;;4.13;1.10;;;;;;;;;;4953059;28;20476;-76
2023/05/07 13:03:31;;;;;;;1.05;0.50;;;;;;;;;;4953121;28;20027;-76
2023/05/07 13:06:01;;;;;;;1.05;0.70;;;;;;;;;;4953086;28;20032;-76
2023/05/07 13:08:30;;;;;;;1.52;0.80;;;;;;;;;;4952447;28;20383;-73
2023/05/07 13:10:56;;;;;;;2.03;0.68;;;;;;;;;;4952917;28;20031;-73
2023/05/07 13:13:22;;;;;;;2.70;1.52;;;;;;;;;;4952925;28;20032;-75
2023/05/07 13:15:48;;;;;;;1.67;0.80;;;;;;;;;;4952995;28;20023;-76
2023/05/07 13:18:15;;;;;;;4.70;1.00;;;;;;;;;;4952618;28;20123;-73
2023/05/07 13:20:41;;;;;;;0.60;0.60;;;;;;;;;;4951379;28;20058;-72
2023/05/07 13:23:07;;;;;;;1.08;0.50;;;;;;;;;;4952198;28;20432;-72
2023/05/07 13:25:33;;;;;;;0.60;0.60;;;;;;;;;;4952256;28;20082;-74
2023/05/07 13:27:59;;;;;;;0.40;0.40;;;;;;;;;;4950890;28;20372;-74
2023/05/07 13:30:25;;;;;;;2.80;0.80;;;;;;;;;;4951260;28;20030;-75
2023/05/07 13:32:52;;;;;;;0.60;0.60;;;;;;;;;;4952395;29;20133;-74
2023/05/07 13:35:18;;;;;;;1.38;0.80;;;;;;;;;;4952436;28;20507;-74
2023/05/07 13:37:44;;;;;;;0.75;0.75;;;;;;;;;;4952499;28;20031;-75
2023/05/07 13:40:10;;;;;;;1.42;0.73;;;;;;;;;;4952020;28;20408;-74
2023/05/07 13:42:36;;;;;;;1.00;0.90;;;;;;;;;;4952194;28;20098;-74
2023/05/07 13:45:04;;;;;;;1.30;0.60;;;;;;;;;;4952506;28;20031;-75
2023/05/07 13:47:30;;;;;;;1.00;0.77;;;;;;;;;;4952060;28;20074;-75
2023/05/07 13:49:57;;;;;;;1.80;0.98;;;;;;;;;;4950794;28;20023;-74
2023/05/07 13:52:23;;;;;;;1.25;1.13;;;;;;;;;;4952096;28;20074;-74
2023/05/07 13:54:49;;;;;;;3.33;0.70;;;;;;;;;;4951694;28;20051;-74
2023/05/07 13:57:15;;;;;;;3.70;0.77;;;;;;;;;;4951713;28;20051;-75
2023/05/07 13:59:41;;;;;;;1.30;1.08;;;;;;;;;;4950377;28;20046;-76
2023/05/07 14:02:08;;;;;;;1.75;0.65;;;;;;;;;;4951733;28;20053;-74
2023/05/07 14:04:34;;;;;;;0.63;0.60;;;;;;;;;;4951718;28;20023;-75
2023/05/07 14:07:00;;;;;;;0.82;0.50;;;;;;;;;;4950509;28;20094;-75
2023/05/07 14:09:26;;;;;;;0.40;0.40;;;;;;;;;;4950175;28;20089;-76
2023/05/07 14:11:52;;;;;;;0.88;0.70;;;;;;;;;;4951981;28;20074;-75
2023/05/07 14:14:19;;;;;;;0.75;0.75;;;;;;;;;;4951977;28;20028;-74
2023/05/07 14:16:45;;;;;;;2.47;0.60;;;;;;;;;;4951590;28;20471;-74
2023/05/07 14:19:12;;;;;;;1.20;0.70;;;;;;;;;;4951563;28;20066;-74
2023/05/07 14:21:38;;;;;;;0.55;0.55;;;;;;;;;;4951676;28;20031;-74
2023/05/07 14:24:04;;;;;;;1.90;0.55;;;;;;;;;;4949995;28;20078;-74
2023/05/07 14:26:30;;;;;;;4.68;1.05;;;;;;;;;;4951310;28;20078;-75
2023/05/07 14:28:58;;;;;;;0.70;0.70;;;;;;;;;;4952951;28;20054;-75
2023/05/07 14:31:24;;;;;;;0.85;0.85;;;;;;;;;;4951200;28;20035;-75
2023/05/07 14:33:50;;;;;;;0.50;0.50;;;;;;;;;;4951477;28;20031;-75
2023/05/07 14:36:16;;;;;;;2.35;0.80;;;;;;;;;;4951154;28;20102;-75
2023/05/07 14:38:42;;;;;;;3.70;0.70;;;;;;;;;;4949316;28;20039;-75
2023/05/07 14:41:09;;;;;;;1.90;1.05;;;;;;;;;;4950013;28;20123;-75